Time;durP1;ratioP1;P1;durP2;ratioP2;P2;SDS_P1;SDS_P2;PMS_P1;PMS_P2;Temp;Humidity;BMP_temperature;BMP_pressure;BME280_temperature;BME280_humidity;BME280_pressure;Samples;Min_cycle;Max_cycle;Signal;HPM_P1;HPM_P2
2023/02/13 00:00:40;;;;;;;32.45;12.98;;;;;;;-1.42;100.00;94637.81;2090327;28;20021;-86
2023/02/13 00:01:41;;;;;;;43.88;13.65;;;;;;;-1.46;100.00;94632.41;2084504;28;20020;-84
2023/02/13 00:02:42;;;;;;;35.13;13.23;;;;;;;-1.47;100.00;94635.34;2089769;28;20406;-85
2023/02/13 00:03:43;;;;;;;33.83;13.27;;;;;;;-1.52;100.00;94628.38;2093538;28;20016;-84
2023/02/13 00:04:44;;;;;;;25.88;13.35;;;;;;;-1.52;100.00;94623.91;2081552;28;20021;-83
2023/02/13 00:05:45;;;;;;;26.80;12.55;;;;;;;-1.49;100.00;94634.84;2093128;28;20020;-85
2023/02/13 00:06:49;;;;;;;38.85;13.55;;;;;;;-1.46;100.00;94624.53;2092937;28;20016;-85
2023/02/13 00:07:50;;;;;;;28.15;13.88;;;;;;;-1.47;100.00;94633.47;2098260;28;20029;-86
2023/02/13 00:08:51;;;;;;;28.58;12.90;;;;;;;-1.55;100.00;94629.72;2092130;28;20777;-85
2023/02/13 00:09:52;;;;;;;47.25;12.27;;;;;;;-1.45;100.00;94633.16;2081451;28;20028;-85
2023/02/13 00:10:59;;;;;;;38.75;13.63;;;;;;;-1.43;100.00;94639.66;2092633;28;20017;-86
2023/02/13 00:11:59;;;;;;;28.67;14.48;;;;;;;-1.45;100.00;94630.53;2104146;28;20024;-85
2023/02/13 00:13:00;;;;;;;27.30;13.35;;;;;;;-1.53;100.00;94624.97;2106005;28;20046;-86
2023/02/13 00:14:02;;;;;;;23.45;12.77;;;;;;;-1.52;100.00;94629.13;2102868;28;20487;-87
2023/02/13 00:15:03;;;;;;;28.73;13.43;;;;;;;-1.58;100.00;94635.59;2097871;28;20024;-85
2023/02/13 00:16:05;;;;;;;27.50;13.27;;;;;;;-1.58;100.00;94632.97;2093460;28;20458;-85
2023/02/13 00:17:06;;;;;;;30.92;14.23;;;;;;;-1.63;100.00;94634.94;2093265;28;20201;-85
2023/02/13 00:18:07;;;;;;;39.38;14.13;;;;;;;-1.68;100.00;94638.47;2091186;28;20370;-85
2023/02/13 00:19:08;;;;;;;30.42;13.45;;;;;;;-1.68;100.00;94633.22;2092667;28;20059;-87
2023/02/13 00:20:10;;;;;;;24.05;13.32;;;;;;;-1.76;100.00;94628.69;2083445;28;20112;-85
2023/02/13 00:21:14;;;;;;;23.13;13.15;;;;;;;-1.80;100.00;94630.38;2093555;28;20170;-85
2023/02/13 00:22:15;;;;;;;25.52;12.68;;;;;;;-1.85;100.00;94633.88;2089233;28;20020;-85
2023/02/13 00:23:16;;;;;;;22.65;13.50;;;;;;;-1.86;100.00;94634.19;2101255;28;21000;-85
2023/02/13 00:24:17;;;;;;;27.08;13.55;;;;;;;-1.92;100.00;94627.53;2091697;28;20092;-85
2023/02/13 00:25:18;;;;;;;24.90;13.25;;;;;;;-1.94;100.00;94627.81;2087203;28;20024;-85
2023/02/13 00:26:19;;;;;;;23.33;12.57;;;;;;;-1.96;100.00;94629.22;2082854;28;20049;-85
2023/02/13 00:27:20;;;;;;;24.08;14.10;;;;;;;-2.01;100.00;94630.09;2090722;28;20028;-84
2023/02/13 00:28:21;;;;;;;23.50;13.70;;;;;;;-2.04;100.00;94628.84;2092006;28;20035;-85
2023/02/13 00:29:22;;;;;;;25.75;13.80;;;;;;;-2.04;100.00;94628.06;2101614;28;20051;-85
2023/02/13 00:30:23;;;;;;;22.55;13.35;;;;;;;-2.04;100.00;94626.22;2098447;28;20374;-85
2023/02/13 00:31:28;;;;;;;21.55;13.57;;;;;;;-2.09;100.00;94630.81;2088319;28;20029;-85
2023/02/13 00:32:30;;;;;;;21.30;12.82;;;;;;;-2.08;100.00;94625.28;2086076;28;20029;-84
2023/02/13 00:33:31;;;;;;;19.77;12.80;;;;;;;-2.09;100.00;94628.19;2080881;28;20425;-85
2023/02/13 00:34:35;;;;;;;21.88;13.43;;;;;;;-2.13;100.00;94627.25;2081199;28;20476;-85
2023/02/13 00:35:39;;;;;;;22.85;13.35;;;;;;;-2.18;100.00;94622.13;2090723;28;20118;-84
2023/02/13 00:36:40;;;;;;;20.52;12.88;;;;;;;-2.23;100.00;94625.66;2091262;28;20024;-84
2023/02/13 00:37:42;;;;;;;21.02;12.88;;;;;;;-2.31;100.00;94629.75;2084299;28;20171;-85
2023/02/13 00:38:45;;;;;;;19.42;12.43;;;;;;;-2.30;100.00;94625.28;2083511;28;20536;-85
2023/02/13 00:39:46;;;;;;;19.05;12.45;;;;;;;-2.22;100.00;94623.78;2092780;28;20082;-84
2023/02/13 00:40:47;;;;;;;20.88;12.02;;;;;;;-2.21;100.00;94627.97;2109603;28;20468;-83
2023/02/13 00:41:48;;;;;;;17.92;11.75;;;;;;;-2.27;100.00;94624.69;2097327;28;20048;-87
2023/02/13 00:42:49;;;;;;;21.58;12.88;;;;;;;-2.32;100.00;94624.81;2083521;28;20132;-86
2023/02/13 00:43:50;;;;;;;20.48;12.77;;;;;;;-2.31;100.00;94623.72;2096143;28;20067;-86
2023/02/13 00:44:52;;;;;;;20.98;12.50;;;;;;;-2.32;100.00;94622.97;2085791;28;20025;-84
2023/02/13 00:45:57;;;;;;;17.75;12.50;;;;;;;-2.33;100.00;94631.09;2087150;28;20031;-84
2023/02/13 00:46:58;;;;;;;18.05;12.20;;;;;;;-2.32;100.00;94622.19;2092952;28;20515;-85
2023/02/13 00:48:00;;;;;;;17.23;11.90;;;;;;;-2.34;100.00;94622.47;2097533;28;20110;-85
2023/02/13 00:49:01;;;;;;;19.23;12.70;;;;;;;-2.38;100.00;94625.97;2089161;28;20465;-85
2023/02/13 00:50:03;;;;;;;25.00;12.32;;;;;;;-2.49;100.00;94622.81;2093886;28;20016;-85
2023/02/13 00:51:07;;;;;;;23.17;12.90;;;;;;;-2.45;100.00;94621.16;2089040;28;20433;-84
2023/02/13 00:52:08;;;;;;;34.47;12.80;;;;;;;-2.53;100.00;94625.25;2086293;28;20076;-86
2023/02/13 00:53:09;;;;;;;51.38;12.88;;;;;;;-2.42;100.00;94625.78;2084528;28;20021;-85
2023/02/13 00:54:10;;;;;;;56.70;12.50;;;;;;;-2.44;100.00;94627.16;2085674;28;20043;-84
2023/02/13 00:55:11;;;;;;;75.90;13.00;;;;;;;-2.54;100.00;94621.09;2092394;28;20028;-87
2023/02/13 00:56:12;;;;;;;35.03;13.05;;;;;;;-2.52;100.00;94631.25;2111192;28;20447;-84
2023/02/13 00:57:13;;;;;;;46.30;13.43;;;;;;;-2.55;100.00;94630.03;2108874;28;20460;-84
2023/02/13 00:58:16;;;;;;;24.98;13.18;;;;;;;-2.57;100.00;94626.91;2088558;28;20029;-85
2023/02/13 00:59:17;;;;;;;81.97;13.07;;;;;;;-2.55;100.00;94634.47;2080281;28;20029;-84
2023/02/13 01:00:18;;;;;;;51.72;11.68;;;;;;;-2.56;100.00;94631.06;2080728;28;20166;-85
2023/02/13 01:01:19;;;;;;;32.20;11.40;;;;;;;-2.56;100.00;94635.53;2094872;28;20189;-85
2023/02/13 01:02:20;;;;;;;46.38;12.10;;;;;;;-2.57;100.00;94631.38;2089161;28;20167;-86
2023/02/13 01:03:22;;;;;;;19.88;12.75;;;;;;;-2.61;100.00;94625.19;2092728;28;20470;-84
2023/02/13 01:04:23;;;;;;;39.67;12.32;;;;;;;-2.75;100.00;94630.44;2091268;28;20016;-85
2023/02/13 01:05:24;;;;;;;49.17;12.05;;;;;;;-2.84;100.00;94632.97;2082282;28;20025;-85
2023/02/13 01:06:25;;;;;;;17.55;12.23;;;;;;;-2.80;100.00;94631.34;2089423;28;20028;-85
2023/02/13 01:07:26;;;;;;;46.97;14.75;;;;;;;-2.77;100.00;94624.72;2097294;28;20081;-86
2023/02/13 01:08:27;;;;;;;19.73;12.70;;;;;;;-2.77;100.00;94624.72;2091150;28;20028;-85
2023/02/13 01:09:28;;;;;;;17.60;12.68;;;;;;;-2.77;100.00;94624.72;2083130;28;20048;-84
2023/02/13 01:10:29;;;;;;;20.40;12.15;;;;;;;-2.81;100.00;94621.13;2092031;28;20017;-86
2023/02/13 01:11:30;;;;;;;16.48;11.52;;;;;;;-2.89;100.00;94619.25;2092422;28;20017;-84
2023/02/13 01:12:31;;;;;;;16.42;11.32;;;;;;;-2.96;100.00;94624.09;2084340;28;20016;-84
2023/02/13 01:13:32;;;;;;;14.52;10.73;;;;;;;-2.95;100.00;94630.84;2081289;28;20494;-86
2023/02/13 01:14:33;;;;;;;17.00;11.73;;;;;;;-2.88;100.00;94631.25;2092888;28;20032;-83
2023/02/13 01:15:35;;;;;;;16.40;11.10;;;;;;;-2.87;100.00;94628.31;2089124;28;20390;-83
2023/02/13 01:16:36;;;;;;;17.20;11.77;;;;;;;-2.87;100.00;94633.56;2073283;28;20104;-84
2023/02/13 01:17:40;;;;;;;15.38;10.90;;;;;;;-2.88;100.00;94628.63;2080732;28;20544;-85
2023/02/13 01:18:41;;;;;;;16.50;11.25;;;;;;;-2.88;100.00;94634.63;2081319;28;20482;-84
2023/02/13 01:19:42;;;;;;;17.52;11.40;;;;;;;-2.86;100.00;94629.09;2080850;28;20021;-84
2023/02/13 01:20:56;;;;;;;16.88;11.90;;;;;;;-2.86;100.00;94632.47;2089143;28;20051;-85
2023/02/13 01:21:57;;;;;;;16.60;11.07;;;;;;;-2.88;100.00;94636.47;2088156;28;20028;-83
2023/02/13 01:22:58;;;;;;;16.90;11.35;;;;;;;-2.93;100.00;94632.13;2092177;28;20025;-86
2023/02/13 01:24:03;;;;;;;16.65;11.23;;;;;;;-2.95;100.00;94636.88;2093251;28;20024;-86
2023/02/13 01:25:05;;;;;;;18.50;10.95;;;;;;;-3.04;100.00;94634.16;2090358;28;20166;-85
2023/02/13 01:26:09;;;;;;;18.85;12.13;;;;;;;-3.06;100.00;94635.53;2101548;28;20541;-84
2023/02/13 01:27:10;;;;;;;15.55;11.07;;;;;;;-3.07;100.00;94642.59;2092718;28;20063;-84
2023/02/13 01:28:11;;;;;;;17.45;11.00;;;;;;;-3.07;100.00;94634.75;2080571;28;20080;-85
2023/02/13 01:29:13;;;;;;;16.23;11.05;;;;;;;-3.12;100.00;94632.22;2089171;28;20021;-85
2023/02/13 01:30:15;;;;;;;16.63;11.50;;;;;;;-3.09;100.00;94638.72;2105568;28;20511;-85
2023/02/13 01:31:16;;;;;;;16.42;11.30;;;;;;;-3.14;100.00;94638.81;2096827;28;20498;-85
2023/02/13 01:32:17;;;;;;;15.73;10.45;;;;;;;-3.19;100.00;94642.31;2086546;28;20029;-84
2023/02/13 01:33:18;;;;;;;16.95;11.30;;;;;;;-3.14;100.00;94639.59;2082781;28;20033;-84
2023/02/13 01:34:19;;;;;;;17.20;11.07;;;;;;;-3.08;100.00;94638.41;2084530;28;20103;-87
2023/02/13 01:35:20;;;;;;;16.08;11.07;;;;;;;-3.15;100.00;94635.44;2082529;28;20100;-85
2023/02/13 01:36:21;;;;;;;16.33;10.93;;;;;;;-3.15;100.00;94632.81;2086930;28;20052;-85
2023/02/13 01:37:22;;;;;;;16.88;11.80;;;;;;;-3.13;100.00;94640.38;2096963;28;20069;-85
2023/02/13 01:38:22;;;;;;;15.00;10.65;;;;;;;-3.24;100.00;94636.41;2091080;28;20020;-86
2023/02/13 01:39:24;;;;;;;16.80;10.57;;;;;;;-3.23;100.00;94632.72;2094634;28;20493;-84
2023/02/13 01:40:28;;;;;;;16.50;10.52;;;;;;;-3.20;100.00;94638.16;2088830;28;20520;-85
2023/02/13 01:41:31;;;;;;;15.63;10.50;;;;;;;-3.19;100.00;94633.69;2084368;28;20033;-85
2023/02/13 01:42:34;;;;;;;16.63;10.68;;;;;;;-3.21;100.00;94635.81;2078152;28;20595;-83
2023/02/13 01:43:56;;;;;;;15.52;10.18;;;;;;;-3.24;100.00;94629.34;2088887;28;20439;-84
2023/02/13 01:44:58;;;;;;;16.20;10.90;;;;;;;-3.22;100.00;94636.88;2097282;28;20380;-84
2023/02/13 01:46:00;;;;;;;17.38;10.73;;;;;;;-3.24;100.00;94636.41;2109166;28;20031;-85
2023/02/13 01:47:01;;;;;;;17.40;10.43;;;;;;;-3.27;100.00;94632.53;2097358;28;20138;-84
2023/02/13 01:48:06;;;;;;;15.77;11.02;;;;;;;-3.27;100.00;94637.00;2088557;28;20462;-84
2023/02/13 01:49:14;;;;;;;15.00;10.40;;;;;;;-3.35;100.00;94643.66;2080732;28;20025;-85
2023/02/13 01:50:27;;;;;;;14.32;10.68;;;;;;;-3.27;100.00;94631.75;2093418;28;20088;-85
2023/02/13 01:51:31;;;;;;;16.65;11.40;;;;;;;-3.35;100.00;94639.19;2091809;28;20128;-82
2023/02/13 01:52:34;;;;;;;13.82;10.10;;;;;;;-3.30;100.00;94633.09;2092238;28;20025;-83
2023/02/13 01:54:13;;;;;;;14.40;10.30;;;;;;;-3.33;100.00;94636.31;2088780;28;20075;-83
2023/02/13 01:55:16;;;;;;;15.40;9.90;;;;;;;-3.45;100.00;94631.56;2092258;28;20028;-84
2023/02/13 01:56:24;;;;;;;14.07;9.93;;;;;;;-3.34;100.00;94619.84;2080861;28;20037;-84
2023/02/13 01:57:28;;;;;;;14.98;10.32;;;;;;;-3.31;100.00;94629.72;2085483;28;20391;-84
2023/02/13 01:58:34;;;;;;;15.48;10.35;;;;;;;-3.32;100.00;94622.19;2081862;28;20104;-84
2023/02/13 01:59:46;;;;;;;13.73;9.63;;;;;;;-3.42;100.00;94630.22;2081691;28;20111;-85
2023/02/13 02:00:48;;;;;;;14.77;10.05;;;;;;;-3.39;100.00;94627.78;2085466;28;20526;-85
2023/02/13 02:01:49;;;;;;;15.05;10.20;;;;;;;-3.44;100.00;94627.88;2091996;28;20017;-84
2023/02/13 02:02:56;;;;;;;13.93;9.57;;;;;;;-3.46;100.00;94631.84;2084698;28;20041;-85
2023/02/13 02:04:12;;;;;;;15.05;10.00;;;;;;;-3.47;100.00;94623.22;2094481;28;20512;-85
2023/02/13 02:05:15;;;;;;;14.93;10.13;;;;;;;-3.47;100.00;94625.81;2082423;28;20025;-84
2023/02/13 02:06:30;;;;;;;14.13;10.63;;;;;;;-3.62;100.00;94632.13;2087050;28;20071;-84
2023/02/13 02:07:33;;;;;;;15.68;9.88;;;;;;;-3.59;100.00;94628.16;2093612;28;20655;-85
2023/02/13 02:08:35;;;;;;;13.60;9.85;;;;;;;-3.52;100.00;94633.75;2096862;28;20028;-84
2023/02/13 02:09:39;;;;;;;13.95;9.57;;;;;;;-3.53;100.00;94636.69;2096394;28;20016;-84
2023/02/13 02:10:41;;;;;;;15.02;9.93;;;;;;;-3.57;100.00;94631.25;2097717;28;20085;-85
2023/02/13 02:11:51;;;;;;;14.65;10.32;;;;;;;-3.74;100.00;94631.81;2102340;28;20039;-85
2023/02/13 02:13:04;;;;;;;13.73;9.30;;;;;;;-3.63;100.00;94625.34;2089660;28;20080;-85
2023/02/13 02:14:05;;;;;;;12.35;8.60;;;;;;;-3.61;100.00;94628.44;2083212;28;20112;-85
2023/02/13 02:15:06;;;;;;;12.77;9.02;;;;;;;-3.64;100.00;94623.03;2098750;28;20081;-83
2023/02/13 02:16:07;;;;;;;14.63;9.32;;;;;;;-3.53;100.00;94623.63;2098593;28;20089;-85
2023/02/13 02:19:14;;;;;;;;;;;;;;;-3.58;100.00;94622.63;2131865;27;20119;-73
2023/02/13 02:20:37;;;;;;;12.43;8.35;;;;;;;-3.56;100.00;94612.69;2119416;27;20566;-73
2023/02/13 02:21:51;;;;;;;12.60;8.25;;;;;;;-3.61;100.00;94611.97;2113211;27;20023;-73
2023/02/13 02:23:31;;;;;;;14.10;8.85;;;;;;;-3.60;100.00;94614.34;2121311;27;20031;-73
2023/02/13 02:24:45;;;;;;;12.65;8.70;;;;;;;-3.66;100.00;94605.00;2111332;28;20170;-75
2023/02/13 02:25:46;;;;;;;11.82;8.40;;;;;;;-3.63;100.00;94607.06;2119302;27;20051;-73
2023/02/13 02:27:32;;;;;;;12.13;8.60;;;;;;;-3.65;100.00;94611.78;2124361;27;20098;-73
2023/02/13 02:29:00;;;;;;;12.10;8.45;;;;;;;-3.67;100.00;94605.31;2132499;27;20042;-73
2023/02/13 02:30:36;;;;;;;14.77;8.70;;;;;;;-3.73;100.00;94607.25;2131543;27;20090;-74
2023/02/13 02:32:10;;;;;;;14.50;8.98;;;;;;;-3.67;100.00;94603.47;2125229;27;20427;-74
2023/02/13 02:33:23;;;;;;;13.25;8.88;;;;;;;-3.60;100.00;94600.47;2126718;27;20026;-74
2023/02/13 02:34:54;;;;;;;12.77;8.95;;;;;;;-3.48;100.00;94605.22;2130851;27;20061;-73
2023/02/13 02:36:19;;;;;;;14.35;8.82;;;;;;;-3.51;100.00;94593.53;2122834;27;20077;-74
2023/02/13 02:37:53;;;;;;;13.20;8.82;;;;;;;-3.63;100.00;94601.06;2117090;27;20455;-72
2023/02/13 02:39:01;;;;;;;13.88;9.45;;;;;;;-3.70;100.00;94598.81;2124980;27;20115;-73
2023/02/13 02:40:24;;;;;;;14.88;9.63;;;;;;;-3.39;100.00;94598.25;2134645;27;20040;-74
2023/02/13 02:41:45;;;;;;;11.57;8.55;;;;;;;-3.49;100.00;94590.63;2133264;27;20030;-74
2023/02/13 02:43:05;;;;;;;15.15;9.02;;;;;;;-3.49;100.00;94590.63;2133274;27;20122;-74
2023/02/13 02:44:32;;;;;;;15.13;9.25;;;;;;;-3.61;100.00;94591.84;2119580;27;20034;-73
2023/02/13 02:45:57;;;;;;;13.85;8.98;;;;;;;-3.63;100.00;94591.38;2119297;28;20023;-74
2023/02/13 02:50:29;;;;;;;15.35;9.90;;;;;;;-3.73;100.00;94588.16;2132642;27;20062;-73
2023/02/13 02:51:48;;;;;;;14.80;9.15;;;;;;;-3.73;100.00;94583.75;2134680;27;20022;-73
2023/02/13 02:53:06;;;;;;;16.10;9.73;;;;;;;-3.84;100.00;94590.97;2129518;27;20031;-73
2023/02/13 02:55:55;;;;;;;15.20;9.57;;;;;;;-3.76;100.00;94592.16;2129973;27;20042;-73
2023/02/13 02:56:59;;;;;;;;;;;;;;;-3.80;100.00;94596.41;2135637;27;20023;-72
2023/02/13 03:07:08;;;;;;;16.95;9.52;;;;;;;-3.79;100.00;94595.31;2118850;27;20028;-73
2023/02/13 03:08:09;;;;;;;15.52;9.77;;;;;;;-3.78;100.00;94596.09;2123264;27;20031;-73
2023/02/13 03:13:40;;;;;;;13.52;9.00;;;;;;;-3.74;100.00;94604.91;2131905;27;20035;-73
2023/02/13 03:14:43;;;;;;;15.20;10.10;;;;;;;-3.68;100.00;94609.00;2125252;27;20035;-73
2023/02/13 03:23:36;;;;;;;13.40;8.65;;;;;;;-3.91;100.00;94613.28;2130198;27;20048;-74
2023/02/13 03:24:53;;;;;;;12.55;8.32;;;;;;;-4.02;100.00;94622.38;2129032;27;20026;-73
2023/02/13 03:26:19;;;;;;;14.57;9.00;;;;;;;-3.96;100.00;94618.59;2130208;27;20110;-74
2023/02/13 03:31:16;;;;;;;13.43;8.65;;;;;;;-4.05;100.00;94626.31;2127856;27;20058;-75
2023/02/13 03:32:20;;;;;;;13.07;7.95;;;;;;;-4.07;100.00;94624.00;2127236;27;20039;-72
2023/02/13 03:33:52;;;;;;;12.63;8.95;;;;;;;-4.05;100.00;94627.09;2129017;27;20034;-74
2023/02/13 03:38:40;;;;;;;13.45;8.70;;;;;;;-4.02;100.00;94627.59;2125103;27;20037;-74
2023/02/13 03:39:52;;;;;;;15.32;8.95;;;;;;;-3.96;100.00;94629.06;2123622;27;20022;-73
2023/02/13 03:41:28;;;;;;;14.88;9.43;;;;;;;-3.90;100.00;94633.16;2123436;27;20030;-73
2023/02/13 03:42:47;;;;;;;42.60;10.43;;;;;;;-3.86;100.00;94626.28;2113349;27;20031;-73
2023/02/13 03:44:06;;;;;;;25.73;10.85;;;;;;;-3.88;100.00;94637.00;2116744;27;20586;-73
2023/02/13 03:46:41;;;;;;;18.63;10.05;;;;;;;-3.82;100.00;94627.22;2126456;27;20034;-73
2023/02/13 03:47:47;;;;;;;19.23;11.43;;;;;;;-3.76;100.00;94630.56;2126744;27;20019;-73
2023/02/13 03:50:09;;;;;;;14.52;10.23;;;;;;;-3.83;100.00;94636.13;2124376;27;20030;-73
2023/02/13 03:51:17;;;;;;;15.88;10.13;;;;;;;-3.82;100.00;94629.84;2126751;27;20034;-73
2023/02/13 03:52:45;;;;;;;14.80;9.63;;;;;;;-3.87;100.00;94628.09;2126831;27;20102;-73
2023/02/13 03:53:52;;;;;;;16.27;10.40;;;;;;;-3.76;100.00;94633.94;2126159;27;20110;-73
2023/02/13 03:59:15;;;;;;;13.27;9.07;;;;;;;-3.76;100.00;94633.94;2125855;27;20053;-74
2023/02/13 04:00:18;;;;;;;12.93;8.93;;;;;;;-3.78;100.00;94633.44;2130590;27;20034;-74
2023/02/13 04:01:25;;;;;;;13.57;9.10;;;;;;;-3.77;100.00;94629.00;2128707;27;20042;-74
2023/02/13 04:02:32;;;;;;;14.98;9.50;;;;;;;-3.82;100.00;94624.63;2126866;27;20053;-74
2023/02/13 04:03:58;;;;;;;12.85;8.55;;;;;;;-3.75;100.00;94637.31;2126752;27;20028;-74
2023/02/13 04:05:09;;;;;;;14.43;9.35;;;;;;;-3.83;100.00;94630.91;2126970;27;20101;-74
2023/02/13 04:06:18;;;;;;;12.00;7.95;;;;;;;-3.77;100.00;94627.19;2115892;27;20054;-76
2023/02/13 04:07:29;;;;;;;13.65;8.35;;;;;;;-3.79;100.00;94634.50;2119005;27;20056;-75
2023/02/13 04:08:30;;;;;;;13.80;8.80;;;;;;;-3.75;100.00;94627.66;2126888;27;20461;-76
2023/02/13 04:09:36;;;;;;;14.02;8.68;;;;;;;-3.75;100.00;94627.66;2126125;27;20048;-74
2023/02/13 04:10:56;;;;;;;13.57;9.38;;;;;;;-3.77;100.00;94636.84;2122189;27;20027;-73
2023/02/13 04:12:14;;;;;;;13.68;8.73;;;;;;;-3.82;100.00;94637.69;2130328;27;20037;-74
2023/02/13 04:13:26;;;;;;;13.60;8.73;;;;;;;-3.78;100.00;94632.66;2121461;27;20031;-74
2023/02/13 04:14:37;;;;;;;14.88;9.15;;;;;;;-3.93;100.00;94634.47;2127689;27;20369;-74
2023/02/13 04:15:45;;;;;;;13.95;9.48;;;;;;;-3.93;100.00;94636.31;2119136;27;20035;-74
2023/02/13 04:16:50;;;;;;;12.10;8.27;;;;;;;-3.89;100.00;94640.69;2109291;28;20024;-75
2023/02/13 04:18:03;;;;;;;13.93;9.48;;;;;;;-3.88;100.00;94636.22;2108207;27;20061;-75
2023/02/13 04:19:06;;;;;;;16.10;9.35;;;;;;;-3.92;100.00;94632.63;2116461;27;20027;-74
2023/02/13 04:20:08;;;;;;;12.88;9.23;;;;;;;-3.82;100.00;94637.69;2114362;27;20026;-74
2023/02/13 04:21:09;;;;;;;14.40;9.10;;;;;;;-3.82;100.00;94642.91;2126148;27;20139;-75
2023/02/13 04:22:12;;;;;;;13.30;9.57;;;;;;;-3.93;100.00;94638.94;2117752;27;20027;-73
2023/02/13 04:23:14;;;;;;;20.63;10.27;;;;;;;-3.87;100.00;94654.22;2109531;28;20508;-75
2023/02/13 04:24:15;;;;;;;14.82;9.85;;;;;;;-3.82;100.00;94642.91;2103776;28;20386;-75
2023/02/13 04:25:17;;;;;;;14.60;9.45;;;;;;;-3.89;100.00;94648.53;2117978;27;20039;-73
2023/02/13 04:26:22;;;;;;;15.88;9.48;;;;;;;-3.90;100.00;94646.97;2130468;27;20027;-74
2023/02/13 04:27:26;;;;;;;19.30;9.30;;;;;;;-3.84;100.00;94651.03;2119699;27;20106;-74
2023/02/13 04:28:27;;;;;;;17.40;10.23;;;;;;;-3.78;100.00;94649.13;2118721;27;20506;-74
2023/02/13 04:29:28;;;;;;;15.15;9.55;;;;;;;-3.75;100.00;94653.78;2126412;27;20354;-75
2023/02/13 04:30:29;;;;;;;25.85;8.73;;;;;;;-3.76;100.00;94660.06;2126876;27;20034;-72
2023/02/13 04:31:29;;;;;;;14.70;9.60;;;;;;;-3.82;100.00;94662.00;2125689;27;20022;-74
2023/02/13 04:32:30;;;;;;;14.10;9.25;;;;;;;-3.76;100.00;94660.06;2127474;27;20085;-73
2023/02/13 04:33:31;;;;;;;21.17;9.75;;;;;;;-3.65;100.00;94661.44;2126797;27;20076;-73
2023/02/13 04:34:32;;;;;;;19.25;8.70;;;;;;;-3.67;100.00;94657.56;2126717;27;20022;-73
2023/02/13 04:35:34;;;;;;;15.52;8.80;;;;;;;-3.72;100.00;94662.88;2126859;27;20130;-73
2023/02/13 04:36:35;;;;;;;16.35;9.80;;;;;;;-3.67;100.00;94657.56;2126883;27;20015;-73
2023/02/13 04:37:37;;;;;;;15.90;9.20;;;;;;;-3.74;100.00;94654.53;2119975;27;20023;-73
2023/02/13 04:38:38;;;;;;;14.45;9.50;;;;;;;-3.77;100.00;94653.28;2126181;27;20034;-74
2023/02/13 04:39:39;;;;;;;31.92;9.77;;;;;;;-3.84;100.00;94660.72;2116441;27;20093;-74
2023/02/13 04:40:40;;;;;;;29.48;8.98;;;;;;;-3.76;100.00;94659.28;2119779;27;20045;-75
2023/02/13 04:41:41;;;;;;;28.55;8.82;;;;;;;-3.68;100.00;94669.84;2127895;27;20034;-75
2023/02/13 04:42:42;;;;;;;67.97;9.65;;;;;;;-3.63;100.00;94656.69;2117318;27;20480;-75
2023/02/13 04:43:42;;;;;;;25.30;9.07;;;;;;;-3.46;100.00;94663.22;2120715;27;20422;-74
2023/02/13 04:44:44;;;;;;;37.30;9.77;;;;;;;-3.33;100.00;94654.63;2126380;27;20019;-74
2023/02/13 04:45:49;;;;;;;73.93;10.02;;;;;;;-3.47;100.00;94653.81;2126225;27;20058;-75
2023/02/13 04:46:50;;;;;;;19.90;9.20;;;;;;;-3.52;100.00;94654.69;2126272;27;20535;-76
2023/02/13 04:47:56;;;;;;;43.28;9.77;;;;;;;-3.44;100.00;94655.84;2126448;27;20099;-74
2023/02/13 04:48:57;;;;;;;31.58;9.75;;;;;;;-3.47;100.00;94659.81;2117114;27;20027;-74
2023/02/13 04:49:58;;;;;;;74.50;9.90;;;;;;;-3.56;100.00;94654.50;2117360;27;20122;-74
2023/02/13 04:50:59;;;;;;;47.63;10.13;;;;;;;-3.53;100.00;94657.59;2108653;28;20105;-75
2023/02/13 04:52:00;;;;;;;53.55;9.65;;;;;;;-3.50;100.00;94657.78;2111733;28;20059;-77
2023/02/13 04:53:01;;;;;;;81.72;10.50;;;;;;;-3.51;100.00;94658.06;2109058;28;20158;-78
2023/02/13 04:54:02;;;;;;;38.03;10.27;;;;;;;-3.51;100.00;94652.84;2111123;28;20119;-74
2023/02/13 04:55:04;;;;;;;44.05;10.48;;;;;;;-3.52;100.00;94654.69;2108789;28;20027;-73
2023/02/13 04:56:05;;;;;;;53.35;10.43;;;;;;;-3.51;100.00;94655.44;2111979;28;20042;-77
2023/02/13 04:57:06;;;;;;;57.63;10.32;;;;;;;-3.38;100.00;94655.47;2119386;27;20452;-75
2023/02/13 04:58:08;;;;;;;38.08;10.13;;;;;;;-3.41;100.00;94658.66;2128676;27;20029;-78
2023/02/13 04:59:09;;;;;;;49.13;10.30;;;;;;;-3.40;100.00;94659.44;2125976;27;20022;-76
2023/02/13 05:00:10;;;;;;;36.10;10.88;;;;;;;-3.40;100.00;94660.22;2117128;27;20038;-74
2023/02/13 05:01:13;;;;;;;47.67;10.73;;;;;;;-3.40;100.00;94656.81;2116083;27;20062;-73
2023/02/13 05:02:14;;;;;;;50.03;10.13;;;;;;;-3.34;100.00;94653.81;2117169;27;20027;-74
2023/02/13 05:03:15;;;;;;;19.08;9.93;;;;;;;-3.31;100.00;94655.84;2113175;27;20061;-72
2023/02/13 05:04:16;;;;;;;27.67;10.85;;;;;;;-3.34;100.00;94661.66;2128962;27;20533;-72
2023/02/13 05:05:17;;;;;;;21.40;10.30;;;;;;;-3.35;100.00;94657.50;2126152;27;20030;-75
2023/02/13 05:06:18;;;;;;;36.88;10.52;;;;;;;-3.30;100.00;94660.03;2126343;27;20026;-73
2023/02/13 05:07:19;;;;;;;39.70;10.63;;;;;;;-3.31;100.00;94662.94;2126533;27;20049;-73
2023/02/13 05:08:21;;;;;;;79.35;11.88;;;;;;;-3.34;100.00;94661.66;2126176;27;20388;-73
2023/02/13 05:09:22;;;;;;;55.67;12.70;;;;;;;-3.28;100.00;94649.28;2125510;27;20796;-76
2023/02/13 05:10:23;;;;;;;25.83;11.23;;;;;;;-3.24;100.00;94649.50;2129776;27;20513;-74
2023/02/13 05:11:24;;;;;;;47.80;11.75;;;;;;;-3.26;100.00;94651.59;2119267;27;20119;-74
2023/02/13 05:12:25;;;;;;;34.90;11.80;;;;;;;-3.24;100.00;94660.72;2114609;27;20528;-76
2023/02/13 05:13:26;;;;;;;24.23;11.93;;;;;;;-3.23;100.00;94651.03;2126238;27;20305;-73
2023/02/13 05:14:27;;;;;;;22.98;11.60;;;;;;;-3.24;100.00;94658.09;2124544;27;20035;-74
2023/02/13 05:15:28;;;;;;;39.38;11.63;;;;;;;-3.20;100.00;94656.47;2127712;27;20079;-75
2023/02/13 05:16:29;;;;;;;33.08;12.48;;;;;;;-3.17;100.00;94658.47;2124641;27;20034;-76
2023/02/13 05:17:30;;;;;;;22.65;13.45;;;;;;;-3.12;100.00;94650.53;2116916;27;20022;-75
2023/02/13 05:18:33;;;;;;;35.47;14.05;;;;;;;-3.13;100.00;94651.59;2116673;27;20040;-75
2023/02/13 05:19:34;;;;;;;52.33;12.75;;;;;;;-3.11;100.00;94654.72;2109324;28;20030;-76
2023/02/13 05:20:35;;;;;;;40.88;12.15;;;;;;;-3.07;100.00;94657.53;2117111;27;20528;-74
2023/02/13 05:24:15;;;;;;;49.00;15.52;;;;;;;-3.00;100.00;94655.28;2123869;27;20038;-76
2023/02/13 05:25:16;;;;;;;25.13;14.60;;;;;;;-2.99;100.00;94648.97;2108476;28;20039;-72
2023/02/13 05:26:17;;;;;;;85.18;16.08;;;;;;;-2.98;100.00;94650.53;2110371;28;20050;-72
2023/02/13 05:27:19;;;;;;;27.73;14.57;;;;;;;-2.92;100.00;94654.59;2115380;27;20028;-72
2023/02/13 05:29:39;;;;;;;59.22;21.50;;;;;;;-2.90;100.00;94647.22;2119905;27;20027;-73
2023/02/13 05:30:40;;;;;;;42.45;16.27;;;;;;;-2.88;100.00;94652.19;2123796;27;20496;-73
2023/02/13 05:31:41;;;;;;;52.17;17.88;;;;;;;-2.84;100.00;94651.28;2121599;27;20031;-76
2023/02/13 05:32:42;;;;;;;57.47;19.55;;;;;;;-2.69;100.00;94649.44;2120785;27;20110;-74
2023/02/13 05:33:43;;;;;;;62.08;16.45;;;;;;;-2.66;100.00;94649.63;2121633;27;20030;-73
2023/02/13 05:34:45;;;;;;;79.53;19.58;;;;;;;-2.69;100.00;94654.66;2120533;27;20116;-75
2023/02/13 05:35:46;;;;;;;56.85;17.88;;;;;;;-2.72;100.00;94650.81;2106556;28;20539;-73
2023/02/13 05:36:48;;;;;;;53.28;19.52;;;;;;;-2.65;100.00;94642.53;2102499;28;20028;-75
2023/02/13 05:37:50;;;;;;;55.88;21.45;;;;;;;-2.63;100.00;94650.88;2121820;27;20022;-73
2023/02/13 05:38:51;;;;;;;56.17;19.35;;;;;;;-2.66;100.00;94654.84;2125954;27;20142;-76
2023/02/13 05:39:52;;;;;;;41.20;22.67;;;;;;;-2.58;100.00;94651.53;2122641;27;20160;-75
2023/02/13 05:40:57;;;;;;;61.72;18.40;;;;;;;-2.51;100.00;94645.88;2121551;27;20458;-74
2023/02/13 05:41:58;;;;;;;58.67;16.25;;;;;;;-2.40;100.00;94649.06;2114084;27;20663;-73
2023/02/13 05:42:59;;;;;;;63.17;15.18;;;;;;;-2.44;100.00;94642.88;2112423;27;20023;-74
2023/02/13 05:44:00;;;;;;;77.28;16.08;;;;;;;-2.49;100.00;94648.22;2122420;27;20027;-74
2023/02/13 05:45:01;;;;;;;65.40;17.73;;;;;;;-2.53;100.00;94648.81;2109960;27;20020;-73